sensor_id;sensor_type;location;lat;lon;timestamp;P1;durP1;ratioP1;P2;durP2;ratioP2
7983;SDS011;4037;47.980;10.172;2023-03-11T00:00:47;2.10;;;1.90;;
7983;SDS011;4037;47.980;10.172;2023-03-11T00:03:14;2.20;;;1.90;;
7983;SDS011;4037;47.980;10.172;2023-03-11T00:05:41;2.20;;;2.00;;
7983;SDS011;4037;47.980;10.172;2023-03-11T00:08:09;2.00;;;1.90;;
7983;SDS011;4037;47.980;10.172;2023-03-11T00:10:38;2.30;;;2.10;;
7983;SDS011;4037;47.980;10.172;2023-03-11T00:13:05;1.93;;;1.83;;
7983;SDS011;4037;47.980;10.172;2023-03-11T00:15:31;2.23;;;2.03;;
7983;SDS011;4037;47.980;10.172;2023-03-11T00:17:57;2.03;;;1.93;;
7983;SDS011;4037;47.980;10.172;2023-03-11T00:20:25;3.63;;;2.13;;
7983;SDS011;4037;47.980;10.172;2023-03-11T00:22:51;1.70;;;1.60;;
7983;SDS011;4037;47.980;10.172;2023-03-11T00:25:18;2.43;;;2.23;;
7983;SDS011;4037;47.980;10.172;2023-03-11T00:27:45;2.47;;;2.23;;
7983;SDS011;4037;47.980;10.172;2023-03-11T00:30:11;3.43;;;2.23;;
7983;SDS011;4037;47.980;10.172;2023-03-11T00:32:38;2.63;;;2.00;;
7983;SDS011;4037;47.980;10.172;2023-03-11T00:35:04;2.70;;;1.93;;
7983;SDS011;4037;47.980;10.172;2023-03-11T00:37:30;2.33;;;2.13;;
7983;SDS011;4037;47.980;10.172;2023-03-11T00:39:56;2.27;;;2.07;;
7983;SDS011;4037;47.980;10.172;2023-03-11T00:42:22;3.00;;;2.40;;
7983;SDS011;4037;47.980;10.172;2023-03-11T00:44:48;1.83;;;1.67;;
7983;SDS011;4037;47.980;10.172;2023-03-11T00:47:14;2.40;;;2.07;;
7983;SDS011;4037;47.980;10.172;2023-03-11T00:49:40;2.60;;;2.40;;
7983;SDS011;4037;47.980;10.172;2023-03-11T00:52:07;2.50;;;2.27;;
7983;SDS011;4037;47.980;10.172;2023-03-11T00:54:33;2.50;;;2.30;;
7983;SDS011;4037;47.980;10.172;2023-03-11T00:56:59;2.37;;;2.17;;
7983;SDS011;4037;47.980;10.172;2023-03-11T00:59:25;3.00;;;1.90;;
7983;SDS011;4037;47.980;10.172;2023-03-11T01:01:51;2.50;;;2.30;;
7983;SDS011;4037;47.980;10.172;2023-03-11T01:04:17;3.30;;;2.00;;
7983;SDS011;4037;47.980;10.172;2023-03-11T01:06:43;3.20;;;2.37;;
7983;SDS011;4037;47.980;10.172;2023-03-11T01:09:09;1.93;;;1.83;;
7983;SDS011;4037;47.980;10.172;2023-03-11T01:11:35;2.33;;;2.00;;
7983;SDS011;4037;47.980;10.172;2023-03-11T01:14:01;2.10;;;1.90;;
7983;SDS011;4037;47.980;10.172;2023-03-11T01:16:28;2.00;;;1.90;;
7983;SDS011;4037;47.980;10.172;2023-03-11T01:18:54;2.00;;;1.80;;
7983;SDS011;4037;47.980;10.172;2023-03-11T01:21:20;2.10;;;1.90;;
7983;SDS011;4037;47.980;10.172;2023-03-11T01:23:46;2.43;;;2.23;;
7983;SDS011;4037;47.980;10.172;2023-03-11T01:26:12;2.30;;;2.10;;
7983;SDS011;4037;47.980;10.172;2023-03-11T01:28:39;2.73;;;2.53;;
7983;SDS011;4037;47.980;10.172;2023-03-11T01:31:05;2.17;;;1.97;;
7983;SDS011;4037;47.980;10.172;2023-03-11T01:33:31;1.80;;;1.70;;
7983;SDS011;4037;47.980;10.172;2023-03-11T01:35:57;2.40;;;2.20;;
7983;SDS011;4037;47.980;10.172;2023-03-11T01:38:23;2.20;;;2.00;;
7983;SDS011;4037;47.980;10.172;2023-03-11T01:40:49;2.97;;;2.47;;
7983;SDS011;4037;47.980;10.172;2023-03-11T01:48:27;2.37;;;2.13;;
7983;SDS011;4037;47.980;10.172;2023-03-11T01:50:53;2.67;;;2.47;;
7983;SDS011;4037;47.980;10.172;2023-03-11T01:53:19;2.53;;;2.33;;
7983;SDS011;4037;47.980;10.172;2023-03-11T01:55:46;2.20;;;2.00;;
7983;SDS011;4037;47.980;10.172;2023-03-11T01:58:20;2.30;;;2.10;;
7983;SDS011;4037;47.980;10.172;2023-03-11T02:00:48;2.47;;;2.27;;
7983;SDS011;4037;47.980;10.172;2023-03-11T02:03:18;2.33;;;2.13;;
7983;SDS011;4037;47.980;10.172;2023-03-11T02:05:46;2.70;;;2.30;;
7983;SDS011;4037;47.980;10.172;2023-03-11T02:08:12;2.73;;;2.27;;
7983;SDS011;4037;47.980;10.172;2023-03-11T02:10:38;2.63;;;2.43;;
7983;SDS011;4037;47.980;10.172;2023-03-11T02:13:05;2.53;;;2.33;;
7983;SDS011;4037;47.980;10.172;2023-03-11T02:15:31;2.80;;;2.53;;
7983;SDS011;4037;47.980;10.172;2023-03-11T02:17:58;2.10;;;2.00;;
7983;SDS011;4037;47.980;10.172;2023-03-11T02:23:02;2.70;;;2.50;;
7983;SDS011;4037;47.980;10.172;2023-03-11T02:25:36;2.40;;;2.20;;
7983;SDS011;4037;47.980;10.172;2023-03-11T02:28:04;2.73;;;2.03;;
7983;SDS011;4037;47.980;10.172;2023-03-11T02:30:32;2.70;;;2.50;;
7983;SDS011;4037;47.980;10.172;2023-03-11T02:32:58;2.93;;;2.40;;
7983;SDS011;4037;47.980;10.172;2023-03-11T02:35:24;2.83;;;2.37;;
7983;SDS011;4037;47.980;10.172;2023-03-11T02:37:51;2.70;;;2.40;;
7983;SDS011;4037;47.980;10.172;2023-03-11T02:42:55;2.43;;;2.20;;
7983;SDS011;4037;47.980;10.172;2023-03-11T02:45:23;2.63;;;2.43;;
7983;SDS011;4037;47.980;10.172;2023-03-11T02:47:49;3.00;;;2.70;;
7983;SDS011;4037;47.980;10.172;2023-03-11T02:50:15;3.30;;;3.00;;
7983;SDS011;4037;47.980;10.172;2023-03-11T02:52:42;4.10;;;2.43;;
7983;SDS011;4037;47.980;10.172;2023-03-11T02:55:08;3.23;;;2.87;;
7983;SDS011;4037;47.980;10.172;2023-03-11T02:57:36;2.53;;;2.33;;
7983;SDS011;4037;47.980;10.172;2023-03-11T03:00:02;3.23;;;2.30;;
7983;SDS011;4037;47.980;10.172;2023-03-11T03:02:35;3.33;;;2.30;;
7983;SDS011;4037;47.980;10.172;2023-03-11T03:05:01;2.23;;;2.03;;
7983;SDS011;4037;47.980;10.172;2023-03-11T03:07:27;2.47;;;2.00;;
7983;SDS011;4037;47.980;10.172;2023-03-11T03:09:53;2.40;;;2.20;;
7983;SDS011;4037;47.980;10.172;2023-03-11T03:12:19;2.27;;;2.07;;
7983;SDS011;4037;47.980;10.172;2023-03-11T03:14:45;2.10;;;1.90;;
7983;SDS011;4037;47.980;10.172;2023-03-11T03:17:11;2.83;;;2.00;;
7983;SDS011;4037;47.980;10.172;2023-03-11T03:19:37;2.27;;;2.07;;
7983;SDS011;4037;47.980;10.172;2023-03-11T03:22:02;2.07;;;1.97;;
7983;SDS011;4037;47.980;10.172;2023-03-11T03:24:29;2.20;;;1.97;;
7983;SDS011;4037;47.980;10.172;2023-03-11T03:26:55;2.40;;;2.20;;
7983;SDS011;4037;47.980;10.172;2023-03-11T03:29:21;1.93;;;1.83;;
7983;SDS011;4037;47.980;10.172;2023-03-11T03:31:47;2.17;;;2.07;;
7983;SDS011;4037;47.980;10.172;2023-03-11T03:34:13;2.10;;;1.90;;
7983;SDS011;4037;47.980;10.172;2023-03-11T03:36:39;2.00;;;1.83;;
7983;SDS011;4037;47.980;10.172;2023-03-11T03:39:05;2.07;;;1.90;;
7983;SDS011;4037;47.980;10.172;2023-03-11T03:41:31;2.80;;;1.80;;
7983;SDS011;4037;47.980;10.172;2023-03-11T03:43:57;1.87;;;1.77;;
7983;SDS011;4037;47.980;10.172;2023-03-11T03:46:23;2.10;;;1.87;;
7983;SDS011;4037;47.980;10.172;2023-03-11T03:48:49;1.77;;;1.50;;
7983;SDS011;4037;47.980;10.172;2023-03-11T03:51:15;1.77;;;1.50;;
7983;SDS011;4037;47.980;10.172;2023-03-11T03:53:41;2.37;;;1.90;;
7983;SDS011;4037;47.980;10.172;2023-03-11T03:56:15;1.83;;;1.70;;
7983;SDS011;4037;47.980;10.172;2023-03-11T03:58:41;1.73;;;1.63;;
7983;SDS011;4037;47.980;10.172;2023-03-11T04:01:08;1.90;;;1.80;;
7983;SDS011;4037;47.980;10.172;2023-03-11T04:03:34;1.63;;;1.53;;
7983;SDS011;4037;47.980;10.172;2023-03-11T04:06:05;2.43;;;1.80;;
7983;SDS011;4037;47.980;10.172;2023-03-11T04:08:31;2.13;;;2.00;;
7983;SDS011;4037;47.980;10.172;2023-03-11T04:10:57;1.70;;;1.60;;
7983;SDS011;4037;47.980;10.172;2023-03-11T04:13:23;1.90;;;1.80;;
7983;SDS011;4037;47.980;10.172;2023-03-11T04:15:49;2.00;;;1.80;;
7983;SDS011;4037;47.980;10.172;2023-03-11T04:18:15;2.77;;;1.87;;
7983;SDS011;4037;47.980;10.172;2023-03-11T04:20:41;1.97;;;1.87;;
7983;SDS011;4037;47.980;10.172;2023-03-11T04:23:07;1.60;;;1.50;;
7983;SDS011;4037;47.980;10.172;2023-03-11T04:25:33;2.00;;;1.60;;
7983;SDS011;4037;47.980;10.172;2023-03-11T04:27:59;1.87;;;1.73;;
7983;SDS011;4037;47.980;10.172;2023-03-11T04:30:25;2.10;;;1.93;;
7983;SDS011;4037;47.980;10.172;2023-03-11T04:32:51;2.20;;;2.00;;
7983;SDS011;4037;47.980;10.172;2023-03-11T04:35:17;2.40;;;1.80;;
7983;SDS011;4037;47.980;10.172;2023-03-11T04:37:43;2.60;;;2.00;;
7983;SDS011;4037;47.980;10.172;2023-03-11T04:40:10;2.33;;;1.60;;
7983;SDS011;4037;47.980;10.172;2023-03-11T04:42:36;2.10;;;2.00;;
7983;SDS011;4037;47.980;10.172;2023-03-11T04:45:03;3.20;;;1.80;;
7983;SDS011;4037;47.980;10.172;2023-03-11T04:47:29;1.87;;;1.73;;
7983;SDS011;4037;47.980;10.172;2023-03-11T04:49:55;2.10;;;1.90;;
7983;SDS011;4037;47.980;10.172;2023-03-11T04:52:21;2.20;;;2.00;;
7983;SDS011;4037;47.980;10.172;2023-03-11T04:54:47;2.80;;;1.83;;
7983;SDS011;4037;47.980;10.172;2023-03-11T04:57:13;1.77;;;1.67;;
7983;SDS011;4037;47.980;10.172;2023-03-11T04:59:39;3.90;;;1.90;;
7983;SDS011;4037;47.980;10.172;2023-03-11T05:02:05;1.90;;;1.80;;
7983;SDS011;4037;47.980;10.172;2023-03-11T05:04:31;2.00;;;1.80;;
7983;SDS011;4037;47.980;10.172;2023-03-11T05:06:57;2.40;;;1.83;;
7983;SDS011;4037;47.980;10.172;2023-03-11T05:09:23;2.40;;;2.10;;
7983;SDS011;4037;47.980;10.172;2023-03-11T05:11:49;2.00;;;1.90;;
7983;SDS011;4037;47.980;10.172;2023-03-11T05:14:15;2.80;;;1.97;;
7983;SDS011;4037;47.980;10.172;2023-03-11T05:16:41;3.07;;;2.07;;
7983;SDS011;4037;47.980;10.172;2023-03-11T05:19:07;2.93;;;1.87;;
7983;SDS011;4037;47.980;10.172;2023-03-11T05:21:52;1.87;;;1.77;;
7983;SDS011;4037;47.980;10.172;2023-03-11T05:24:18;2.50;;;2.30;;
7983;SDS011;4037;47.980;10.172;2023-03-11T05:26:44;2.77;;;2.23;;
7983;SDS011;4037;47.980;10.172;2023-03-11T05:29:10;3.53;;;2.23;;
7983;SDS011;4037;47.980;10.172;2023-03-11T05:31:36;4.03;;;2.47;;
7983;SDS011;4037;47.980;10.172;2023-03-11T05:34:03;2.10;;;2.00;;
7983;SDS011;4037;47.980;10.172;2023-03-11T05:36:29;3.90;;;2.17;;
7983;SDS011;4037;47.980;10.172;2023-03-11T05:38:55;4.43;;;2.23;;
7983;SDS011;4037;47.980;10.172;2023-03-11T05:41:21;2.20;;;2.00;;
7983;SDS011;4037;47.980;10.172;2023-03-11T05:43:47;2.57;;;2.00;;
7983;SDS011;4037;47.980;10.172;2023-03-11T05:46:13;2.27;;;2.07;;
7983;SDS011;4037;47.980;10.172;2023-03-11T05:48:39;2.40;;;2.10;;
7983;SDS011;4037;47.980;10.172;2023-03-11T05:51:09;2.40;;;2.10;;
7983;SDS011;4037;47.980;10.172;2023-03-11T05:53:35;2.90;;;2.00;;
7983;SDS011;4037;47.980;10.172;2023-03-11T05:56:02;4.97;;;3.27;;
7983;SDS011;4037;47.980;10.172;2023-03-11T05:58:28;3.60;;;2.10;;
7983;SDS011;4037;47.980;10.172;2023-03-11T06:00:54;2.50;;;2.30;;
7983;SDS011;4037;47.980;10.172;2023-03-11T06:03:20;2.93;;;2.33;;
7983;SDS011;4037;47.980;10.172;2023-03-11T06:05:46;2.50;;;2.30;;
7983;SDS011;4037;47.980;10.172;2023-03-11T06:08:13;3.13;;;2.10;;
7983;SDS011;4037;47.980;10.172;2023-03-11T06:10:39;3.43;;;2.10;;
7983;SDS011;4037;47.980;10.172;2023-03-11T06:13:05;2.90;;;2.33;;
7983;SDS011;4037;47.980;10.172;2023-03-11T06:15:31;2.60;;;2.07;;
7983;SDS011;4037;47.980;10.172;2023-03-11T06:17:57;2.40;;;2.03;;
7983;SDS011;4037;47.980;10.172;2023-03-11T06:20:24;3.57;;;2.33;;
7983;SDS011;4037;47.980;10.172;2023-03-11T06:22:50;3.30;;;2.47;;
7983;SDS011;4037;47.980;10.172;2023-03-11T06:25:16;4.40;;;1.97;;
7983;SDS011;4037;47.980;10.172;2023-03-11T06:27:42;3.47;;;2.10;;
7983;SDS011;4037;47.980;10.172;2023-03-11T06:30:10;3.13;;;1.87;;
7983;SDS011;4037;47.980;10.172;2023-03-11T06:32:36;2.03;;;1.83;;
7983;SDS011;4037;47.980;10.172;2023-03-11T06:35:02;2.37;;;1.90;;
7983;SDS011;4037;47.980;10.172;2023-03-11T06:37:29;3.10;;;2.47;;
7983;SDS011;4037;47.980;10.172;2023-03-11T06:39:55;5.00;;;2.67;;
7983;SDS011;4037;47.980;10.172;2023-03-11T06:42:21;6.77;;;2.30;;
7983;SDS011;4037;47.980;10.172;2023-03-11T06:44:48;5.83;;;3.57;;
7983;SDS011;4037;47.980;10.172;2023-03-11T06:47:14;5.33;;;2.90;;
7983;SDS011;4037;47.980;10.172;2023-03-11T06:49:40;3.83;;;3.13;;
7983;SDS011;4037;47.980;10.172;2023-03-11T06:52:07;2.77;;;2.43;;
7983;SDS011;4037;47.980;10.172;2023-03-11T06:54:34;4.20;;;2.33;;
7983;SDS011;4037;47.980;10.172;2023-03-11T06:57:00;2.27;;;2.07;;
7983;SDS011;4037;47.980;10.172;2023-03-11T06:59:26;1.87;;;1.77;;
7983;SDS011;4037;47.980;10.172;2023-03-11T07:01:53;3.23;;;2.10;;
7983;SDS011;4037;47.980;10.172;2023-03-11T07:04:19;2.73;;;2.17;;
7983;SDS011;4037;47.980;10.172;2023-03-11T07:06:45;3.10;;;1.80;;
7983;SDS011;4037;47.980;10.172;2023-03-11T07:09:11;3.67;;;2.10;;
7983;SDS011;4037;47.980;10.172;2023-03-11T07:11:37;2.63;;;2.03;;
7983;SDS011;4037;47.980;10.172;2023-03-11T07:14:04;3.40;;;2.10;;
7983;SDS011;4037;47.980;10.172;2023-03-11T07:16:30;2.47;;;2.27;;
7983;SDS011;4037;47.980;10.172;2023-03-11T07:18:57;2.67;;;2.10;;
7983;SDS011;4037;47.980;10.172;2023-03-11T07:21:25;5.23;;;2.23;;
7983;SDS011;4037;47.980;10.172;2023-03-11T07:23:52;2.40;;;1.97;;
7983;SDS011;4037;47.980;10.172;2023-03-11T07:26:18;2.40;;;2.20;;
7983;SDS011;4037;47.980;10.172;2023-03-11T07:28:44;2.70;;;2.00;;
7983;SDS011;4037;47.980;10.172;2023-03-11T07:31:12;3.07;;;2.07;;
7983;SDS011;4037;47.980;10.172;2023-03-11T07:33:39;3.30;;;2.10;;
7983;SDS011;4037;47.980;10.172;2023-03-11T07:36:09;2.80;;;2.00;;
7983;SDS011;4037;47.980;10.172;2023-03-11T07:38:35;2.33;;;1.70;;
7983;SDS011;4037;47.980;10.172;2023-03-11T07:41:01;2.97;;;2.20;;
7983;SDS011;4037;47.980;10.172;2023-03-11T07:43:27;2.73;;;1.90;;
7983;SDS011;4037;47.980;10.172;2023-03-11T07:48:28;4.00;;;2.30;;
7983;SDS011;4037;47.980;10.172;2023-03-11T07:51:05;2.10;;;1.87;;
7983;SDS011;4037;47.980;10.172;2023-03-11T07:53:31;2.53;;;1.80;;
7983;SDS011;4037;47.980;10.172;2023-03-11T07:55:57;3.23;;;2.10;;
7983;SDS011;4037;47.980;10.172;2023-03-11T07:58:24;5.07;;;2.10;;
7983;SDS011;4037;47.980;10.172;2023-03-11T08:00:50;2.60;;;1.80;;
7983;SDS011;4037;47.980;10.172;2023-03-11T08:03:16;2.97;;;1.80;;
7983;SDS011;4037;47.980;10.172;2023-03-11T08:05:42;2.90;;;1.40;;
7983;SDS011;4037;47.980;10.172;2023-03-11T08:08:09;1.93;;;1.50;;
7983;SDS011;4037;47.980;10.172;2023-03-11T08:10:35;1.93;;;1.83;;
7983;SDS011;4037;47.980;10.172;2023-03-11T08:13:01;2.27;;;1.80;;
7983;SDS011;4037;47.980;10.172;2023-03-11T08:15:27;2.07;;;1.53;;
7983;SDS011;4037;47.980;10.172;2023-03-11T08:17:53;2.63;;;1.77;;
7983;SDS011;4037;47.980;10.172;2023-03-11T08:20:19;3.20;;;1.50;;
7983;SDS011;4037;47.980;10.172;2023-03-11T08:22:45;2.60;;;1.70;;
7983;SDS011;4037;47.980;10.172;2023-03-11T08:25:11;5.20;;;1.73;;
7983;SDS011;4037;47.980;10.172;2023-03-11T08:27:37;4.03;;;1.80;;
7983;SDS011;4037;47.980;10.172;2023-03-11T08:30:04;2.10;;;1.67;;
7983;SDS011;4037;47.980;10.172;2023-03-11T08:32:31;1.37;;;1.27;;
7983;SDS011;4037;47.980;10.172;2023-03-11T08:34:57;1.17;;;1.13;;
7983;SDS011;4037;47.980;10.172;2023-03-11T08:37:23;2.07;;;1.40;;
7983;SDS011;4037;47.980;10.172;2023-03-11T08:39:49;4.93;;;1.70;;
7983;SDS011;4037;47.980;10.172;2023-03-11T08:42:16;2.40;;;1.60;;
7983;SDS011;4037;47.980;10.172;2023-03-11T08:44:42;2.47;;;1.50;;
7983;SDS011;4037;47.980;10.172;2023-03-11T08:47:08;3.20;;;1.87;;
7983;SDS011;4037;47.980;10.172;2023-03-11T08:49:34;4.00;;;1.70;;
7983;SDS011;4037;47.980;10.172;2023-03-11T08:52:01;3.73;;;1.50;;
7983;SDS011;4037;47.980;10.172;2023-03-11T08:54:27;3.63;;;1.60;;
7983;SDS011;4037;47.980;10.172;2023-03-11T08:56:53;3.67;;;1.70;;
7983;SDS011;4037;47.980;10.172;2023-03-11T08:59:19;3.30;;;1.60;;
7983;SDS011;4037;47.980;10.172;2023-03-11T09:01:45;1.43;;;1.27;;
7983;SDS011;4037;47.980;10.172;2023-03-11T09:04:11;2.57;;;1.43;;
7983;SDS011;4037;47.980;10.172;2023-03-11T09:06:43;2.00;;;1.60;;
7983;SDS011;4037;47.980;10.172;2023-03-11T09:09:13;3.23;;;1.80;;
7983;SDS011;4037;47.980;10.172;2023-03-11T09:11:40;4.20;;;1.93;;
7983;SDS011;4037;47.980;10.172;2023-03-11T09:14:06;3.30;;;1.80;;
7983;SDS011;4037;47.980;10.172;2023-03-11T09:16:32;2.33;;;1.93;;
7983;SDS011;4037;47.980;10.172;2023-03-11T09:18:58;1.80;;;1.57;;
7983;SDS011;4037;47.980;10.172;2023-03-11T09:21:27;2.50;;;1.73;;
7983;SDS011;4037;47.980;10.172;2023-03-11T09:23:53;3.07;;;2.03;;
7983;SDS011;4037;47.980;10.172;2023-03-11T09:26:19;2.03;;;1.70;;
7983;SDS011;4037;47.980;10.172;2023-03-11T09:28:45;2.50;;;1.80;;
7983;SDS011;4037;47.980;10.172;2023-03-11T09:31:13;1.73;;;1.40;;
7983;SDS011;4037;47.980;10.172;2023-03-11T09:33:40;1.70;;;1.60;;
7983;SDS011;4037;47.980;10.172;2023-03-11T09:36:06;2.83;;;2.00;;
7983;SDS011;4037;47.980;10.172;2023-03-11T09:38:32;3.43;;;1.90;;
7983;SDS011;4037;47.980;10.172;2023-03-11T09:41:00;2.97;;;1.93;;
7983;SDS011;4037;47.980;10.172;2023-03-11T09:43:30;2.53;;;1.70;;
7983;SDS011;4037;47.980;10.172;2023-03-11T09:46:03;2.47;;;1.77;;
7983;SDS011;4037;47.980;10.172;2023-03-11T09:48:35;2.43;;;1.60;;
7983;SDS011;4037;47.980;10.172;2023-03-11T09:51:09;2.87;;;2.10;;
7983;SDS011;4037;47.980;10.172;2023-03-11T09:53:40;3.13;;;1.93;;
7983;SDS011;4037;47.980;10.172;2023-03-11T09:56:17;1.53;;;1.43;;
7983;SDS011;4037;47.980;10.172;2023-03-11T09:58:44;2.43;;;1.90;;
7983;SDS011;4037;47.980;10.172;2023-03-11T10:03:40;3.70;;;1.70;;
7983;SDS011;4037;47.980;10.172;2023-03-11T10:06:11;1.67;;;1.57;;
7983;SDS011;4037;47.980;10.172;2023-03-11T10:08:45;2.83;;;1.83;;
7983;SDS011;4037;47.980;10.172;2023-03-11T10:11:18;3.23;;;1.83;;
7983;SDS011;4037;47.980;10.172;2023-03-11T10:26:58;4.80;;;2.10;;
7983;SDS011;4037;47.980;10.172;2023-03-11T10:29:27;5.73;;;2.10;;
7983;SDS011;4037;47.980;10.172;2023-03-11T10:31:59;2.80;;;1.77;;
7983;SDS011;4037;47.980;10.172;2023-03-11T10:34:37;2.40;;;1.60;;
7983;SDS011;4037;47.980;10.172;2023-03-11T10:37:04;3.37;;;1.90;;
7983;SDS011;4037;47.980;10.172;2023-03-11T10:39:35;5.03;;;1.90;;
7983;SDS011;4037;47.980;10.172;2023-03-11T10:42:03;4.37;;;1.97;;
7983;SDS011;4037;47.980;10.172;2023-03-11T10:44:31;3.03;;;2.23;;
7983;SDS011;4037;47.980;10.172;2023-03-11T10:46:58;2.97;;;1.70;;
7983;SDS011;4037;47.980;10.172;2023-03-11T10:49:24;3.77;;;2.03;;
7983;SDS011;4037;47.980;10.172;2023-03-11T10:51:51;3.67;;;1.97;;
7983;SDS011;4037;47.980;10.172;2023-03-11T10:54:36;2.00;;;1.77;;
7983;SDS011;4037;47.980;10.172;2023-03-11T10:59:49;2.37;;;1.97;;
7983;SDS011;4037;47.980;10.172;2023-03-11T11:04:41;3.13;;;1.80;;
7983;SDS011;4037;47.980;10.172;2023-03-11T11:07:23;2.00;;;1.77;;
7983;SDS011;4037;47.980;10.172;2023-03-11T11:10:26;3.13;;;2.47;;
7983;SDS011;4037;47.980;10.172;2023-03-11T11:12:51;2.43;;;2.00;;
7983;SDS011;4037;47.980;10.172;2023-03-11T11:17:50;2.47;;;1.80;;
7983;SDS011;4037;47.980;10.172;2023-03-11T11:20:19;2.33;;;1.77;;
7983;SDS011;4037;47.980;10.172;2023-03-11T11:22:56;2.37;;;1.73;;
7983;SDS011;4037;47.980;10.172;2023-03-11T11:25:24;3.77;;;1.67;;
7983;SDS011;4037;47.980;10.172;2023-03-11T11:27:54;1.93;;;1.77;;
7983;SDS011;4037;47.980;10.172;2023-03-11T11:30:20;5.00;;;2.43;;
7983;SDS011;4037;47.980;10.172;2023-03-11T11:32:47;3.50;;;2.07;;
7983;SDS011;4037;47.980;10.172;2023-03-11T11:35:17;2.03;;;1.70;;
7983;SDS011;4037;47.980;10.172;2023-03-11T11:37:53;2.40;;;1.67;;
7983;SDS011;4037;47.980;10.172;2023-03-11T11:40:24;2.53;;;1.57;;
7983;SDS011;4037;47.980;10.172;2023-03-11T11:47:51;3.87;;;1.97;;
7983;SDS011;4037;47.980;10.172;2023-03-11T11:50:41;4.03;;;2.10;;
7983;SDS011;4037;47.980;10.172;2023-03-11T11:53:27;1.90;;;1.80;;
7983;SDS011;4037;47.980;10.172;2023-03-11T11:55:56;2.07;;;1.87;;
7983;SDS011;4037;47.980;10.172;2023-03-11T11:58:23;2.80;;;2.20;;
7983;SDS011;4037;47.980;10.172;2023-03-11T12:14:20;4.33;;;2.47;;
7983;SDS011;4037;47.980;10.172;2023-03-11T12:16:58;2.70;;;2.50;;
7983;SDS011;4037;47.980;10.172;2023-03-11T12:19:32;2.43;;;1.70;;
7983;SDS011;4037;47.980;10.172;2023-03-11T12:27:25;3.30;;;1.70;;
7983;SDS011;4037;47.980;10.172;2023-03-11T12:29:57;4.43;;;1.70;;
7983;SDS011;4037;47.980;10.172;2023-03-11T12:34:50;1.83;;;1.33;;
7983;SDS011;4037;47.980;10.172;2023-03-11T12:37:17;1.37;;;1.27;;
7983;SDS011;4037;47.980;10.172;2023-03-11T12:39:46;1.80;;;1.50;;
7983;SDS011;4037;47.980;10.172;2023-03-11T12:42:22;2.10;;;1.20;;
7983;SDS011;4037;47.980;10.172;2023-03-11T12:44:51;2.13;;;1.20;;
7983;SDS011;4037;47.980;10.172;2023-03-11T12:49:48;1.57;;;1.20;;
7983;SDS011;4037;47.980;10.172;2023-03-11T12:52:16;2.40;;;1.23;;
7983;SDS011;4037;47.980;10.172;2023-03-11T12:54:46;1.67;;;1.23;;
7983;SDS011;4037;47.980;10.172;2023-03-11T13:07:47;1.13;;;1.03;;
7983;SDS011;4037;47.980;10.172;2023-03-11T13:10:34;2.27;;;1.20;;
7983;SDS011;4037;47.980;10.172;2023-03-11T13:13:01;1.23;;;1.00;;
7983;SDS011;4037;47.980;10.172;2023-03-11T13:15:28;1.20;;;1.10;;
7983;SDS011;4037;47.980;10.172;2023-03-11T13:30:38;1.23;;;1.13;;
7983;SDS011;4037;47.980;10.172;2023-03-11T13:40:39;1.80;;;1.30;;
7983;SDS011;4037;47.980;10.172;2023-03-11T13:45:58;1.87;;;1.40;;
7983;SDS011;4037;47.980;10.172;2023-03-11T13:50:53;1.53;;;1.00;;
7983;SDS011;4037;47.980;10.172;2023-03-11T13:53:28;1.07;;;0.97;;
7983;SDS011;4037;47.980;10.172;2023-03-11T13:55:54;2.03;;;1.20;;
7983;SDS011;4037;47.980;10.172;2023-03-11T13:58:22;2.30;;;1.40;;
7983;SDS011;4037;47.980;10.172;2023-03-11T14:00:49;1.70;;;1.10;;
7983;SDS011;4037;47.980;10.172;2023-03-11T14:03:16;1.90;;;0.82;;
7983;SDS011;4037;47.980;10.172;2023-03-11T14:05:46;3.00;;;1.27;;
7983;SDS011;4037;47.980;10.172;2023-03-11T14:08:24;1.90;;;1.00;;
7983;SDS011;4037;47.980;10.172;2023-03-11T14:10:51;1.67;;;1.10;;
7983;SDS011;4037;47.980;10.172;2023-03-11T14:13:19;3.00;;;1.00;;
7983;SDS011;4037;47.980;10.172;2023-03-11T14:15:59;1.63;;;1.10;;
7983;SDS011;4037;47.980;10.172;2023-03-11T14:18:28;1.88;;;0.90;;
7983;SDS011;4037;47.980;10.172;2023-03-11T14:20:54;1.90;;;1.20;;
7983;SDS011;4037;47.980;10.172;2023-03-11T14:23:20;2.25;;;0.95;;
7983;SDS011;4037;47.980;10.172;2023-03-11T14:25:46;1.23;;;1.00;;
7983;SDS011;4037;47.980;10.172;2023-03-11T14:28:17;2.88;;;1.20;;
7983;SDS011;4037;47.980;10.172;2023-03-11T14:30:57;2.53;;;1.20;;
7983;SDS011;4037;47.980;10.172;2023-03-11T14:33:23;1.57;;;1.33;;
7983;SDS011;4037;47.980;10.172;2023-03-11T14:35:50;1.50;;;1.20;;
7983;SDS011;4037;47.980;10.172;2023-03-11T14:38:21;1.60;;;1.10;;
7983;SDS011;4037;47.980;10.172;2023-03-11T14:40:55;2.30;;;1.77;;
7983;SDS011;4037;47.980;10.172;2023-03-11T14:43:21;3.10;;;2.30;;
7983;SDS011;4037;47.980;10.172;2023-03-11T14:45:48;5.87;;;2.20;;
7983;SDS011;4037;47.980;10.172;2023-03-11T14:48:24;2.57;;;1.60;;
7983;SDS011;4037;47.980;10.172;2023-03-11T14:50:52;2.03;;;1.37;;
7983;SDS011;4037;47.980;10.172;2023-03-11T14:53:20;1.57;;;1.47;;
7983;SDS011;4037;47.980;10.172;2023-03-11T14:55:49;2.80;;;1.25;;
7983;SDS011;4037;47.980;10.172;2023-03-11T15:01:01;1.93;;;1.20;;
7983;SDS011;4037;47.980;10.172;2023-03-11T15:03:29;2.00;;;1.50;;
7983;SDS011;4037;47.980;10.172;2023-03-11T15:05:57;2.20;;;1.90;;
7983;SDS011;4037;47.980;10.172;2023-03-11T15:08:25;1.73;;;1.60;;
7983;SDS011;4037;47.980;10.172;2023-03-11T15:13:27;2.43;;;1.90;;
7983;SDS011;4037;47.980;10.172;2023-03-11T15:15:57;2.87;;;1.50;;
7983;SDS011;4037;47.980;10.172;2023-03-11T15:18:24;1.57;;;1.30;;
7983;SDS011;4037;47.980;10.172;2023-03-11T15:21:24;2.50;;;1.67;;
7983;SDS011;4037;47.980;10.172;2023-03-11T15:26:25;1.53;;;1.43;;
7983;SDS011;4037;47.980;10.172;2023-03-11T15:28:56;1.40;;;1.30;;
7983;SDS011;4037;47.980;10.172;2023-03-11T15:33:48;2.73;;;1.60;;
7983;SDS011;4037;47.980;10.172;2023-03-11T15:36:29;1.40;;;1.30;;
7983;SDS011;4037;47.980;10.172;2023-03-11T15:41:41;2.50;;;1.70;;
7983;SDS011;4037;47.980;10.172;2023-03-11T15:44:21;2.17;;;1.60;;
7983;SDS011;4037;47.980;10.172;2023-03-11T15:46:48;2.53;;;1.50;;
7983;SDS011;4037;47.980;10.172;2023-03-11T15:49:14;2.33;;;2.07;;
7983;SDS011;4037;47.980;10.172;2023-03-11T15:51:40;3.00;;;2.10;;
7983;SDS011;4037;47.980;10.172;2023-03-11T15:54:06;5.60;;;3.20;;
7983;SDS011;4037;47.980;10.172;2023-03-11T15:56:32;6.13;;;3.40;;
7983;SDS011;4037;47.980;10.172;2023-03-11T15:58:59;2.10;;;1.77;;
7983;SDS011;4037;47.980;10.172;2023-03-11T16:01:25;2.23;;;1.83;;
7983;SDS011;4037;47.980;10.172;2023-03-11T16:03:53;1.73;;;1.60;;
7983;SDS011;4037;47.980;10.172;2023-03-11T16:06:19;1.90;;;1.70;;
7983;SDS011;4037;47.980;10.172;2023-03-11T16:08:48;1.97;;;1.70;;
7983;SDS011;4037;47.980;10.172;2023-03-11T16:11:14;2.80;;;1.90;;
7983;SDS011;4037;47.980;10.172;2023-03-11T16:13:42;2.30;;;2.10;;
7983;SDS011;4037;47.980;10.172;2023-03-11T16:16:11;2.33;;;1.70;;
7983;SDS011;4037;47.980;10.172;2023-03-11T16:18:39;2.00;;;1.80;;
7983;SDS011;4037;47.980;10.172;2023-03-11T16:21:07;3.50;;;2.00;;
7983;SDS011;4037;47.980;10.172;2023-03-11T16:23:36;2.70;;;2.10;;
7983;SDS011;4037;47.980;10.172;2023-03-11T16:26:02;2.33;;;1.67;;
7983;SDS011;4037;47.980;10.172;2023-03-11T16:28:29;2.50;;;2.27;;
7983;SDS011;4037;47.980;10.172;2023-03-11T16:30:55;2.43;;;2.17;;
7983;SDS011;4037;47.980;10.172;2023-03-11T16:33:21;3.27;;;2.13;;
7983;SDS011;4037;47.980;10.172;2023-03-11T16:35:47;3.13;;;2.43;;
7983;SDS011;4037;47.980;10.172;2023-03-11T16:38:13;3.23;;;2.00;;
7983;SDS011;4037;47.980;10.172;2023-03-11T16:40:41;2.87;;;1.60;;
7983;SDS011;4037;47.980;10.172;2023-03-11T16:43:08;2.13;;;1.90;;
7983;SDS011;4037;47.980;10.172;2023-03-11T16:45:35;3.27;;;1.97;;
7983;SDS011;4037;47.980;10.172;2023-03-11T16:48:02;3.67;;;2.10;;
7983;SDS011;4037;47.980;10.172;2023-03-11T16:50:29;1.70;;;1.50;;
7983;SDS011;4037;47.980;10.172;2023-03-11T16:52:55;3.00;;;2.03;;
7983;SDS011;4037;47.980;10.172;2023-03-11T16:55:22;3.00;;;2.07;;
7983;SDS011;4037;47.980;10.172;2023-03-11T16:57:49;2.40;;;2.20;;